Da Costa, Texas
Current Conditions -  °F | °C
As of 2:51 PM on Friday 28 Nov 2014 (Local Time) from KVCT Reporting Station
Few Clouds Few Clouds  
Wind Chill: 77°   Ceiling: Unl
Heat Index: 78°   Visibility: 10mi
Dew Point: 51°   Wind: 14mph
Humidity: 40%   Direction: 170°S
Pressure: 30.17"   Gusts: 23mph
Location:  28.7094°N, 97.0351°W
Report Text: KVCT 282051Z 17012G20KT 10SM FEW047 25/11 A3017 RMK AO2 SLP216 T02500106 56031
Loading
Personal Weather Stations






























Interactive Weather Map New forecast layout! Learn more

10-Day Weather Forecast

Advertisements
Track Severe Weather on mobile